createdAt,value
2016-03-25T00:00:59.700Z,75.89
2016-03-25T00:01:59.703Z,75.6
2016-03-25T00:02:59.690Z,75.89
2016-03-25T00:03:59.692Z,75.79
2016-03-25T00:04:59.694Z,75.51
2016-03-25T00:05:59.682Z,75.79
2016-03-25T00:06:59.693Z,75.7
2016-03-25T00:07:59.538Z,76.08
2016-03-25T00:08:59.681Z,75.6
2016-03-25T00:09:59.668Z,75.79
2016-03-25T00:10:59.671Z,75.98
2016-03-25T00:11:59.674Z,76.08
2016-03-25T00:12:59.676Z,75.79
2016-03-25T00:13:59.664Z,76.46
2016-03-25T00:14:59.682Z,76.55
2016-03-25T00:15:59.669Z,76.08
2016-03-25T00:16:59.656Z,75.51
2016-03-25T00:17:59.659Z,75.89
2016-03-25T00:18:59.864Z,75.98
2016-03-25T00:19:59.664Z,76.08
2016-03-25T00:20:59.652Z,75.79
2016-03-25T00:21:59.654Z,75.51
2016-03-25T00:22:59.657Z,76.27
2016-03-25T00:23:59.644Z,76.27
2016-03-25T00:24:59.646Z,75.7
2016-03-25T00:25:59.649Z,75.6
2016-03-25T00:26:59.636Z,75.89
2016-03-25T00:27:59.638Z,75.7
2016-03-25T00:28:59.658Z,75.6
2016-03-25T00:29:59.629Z,75.7
2016-03-25T00:30:59.631Z,75.6
2016-03-25T00:31:59.634Z,75.79
2016-03-25T00:32:59.637Z,76.08
2016-03-25T00:33:59.624Z,75.7
2016-03-25T00:34:59.627Z,75.51
2016-03-25T00:35:59.629Z,75.7
2016-03-25T00:36:59.616Z,75.7
2016-03-25T00:37:59.618Z,75.79
2016-03-25T00:38:59.637Z,75.89
2016-03-25T00:39:59.609Z,75.7
2016-03-25T00:40:59.626Z,75.51
2016-03-25T00:41:59.614Z,75.6
2016-03-25T00:42:59.601Z,75.6
2016-03-25T00:43:59.619Z,75.79
2016-03-25T00:44:59.607Z,75.51
2016-03-25T00:45:59.594Z,75.79
2016-03-25T00:46:59.596Z,75.89
2016-03-25T00:47:59.600Z,75.7
2016-03-25T00:48:59.695Z,75.7
2016-03-25T00:49:59.604Z,75.51
2016-03-25T00:50:59.592Z,75.7
2016-03-25T00:51:59.594Z,75.7
2016-03-25T00:52:59.581Z,75.7
2016-03-25T00:53:59.584Z,75.51
2016-03-25T00:54:59.586Z,75.51
2016-03-25T00:55:59.574Z,75.6
2016-03-25T00:56:59.576Z,75.51
2016-03-25T00:57:59.579Z,75.7
2016-03-25T00:58:59.581Z,75.89
2016-03-25T00:59:59.569Z,75.89
2016-03-25T01:00:59.571Z,75.42
2016-03-25T01:01:59.574Z,75.6
2016-03-25T01:02:59.561Z,75.6
2016-03-25T01:03:59.564Z,75.51
2016-03-25T01:04:59.566Z,75.89
2016-03-25T01:05:59.554Z,75.98
2016-03-25T01:06:59.557Z,75.51
2016-03-25T01:07:59.559Z,75.98
2016-03-25T01:08:59.562Z,75.42
2016-03-25T01:09:59.549Z,75.51
2016-03-25T01:10:59.551Z,75.51
2016-03-25T01:11:59.773Z,75.6
2016-03-25T01:12:59.556Z,75.23
2016-03-25T01:13:59.544Z,75.32
2016-03-25T01:14:59.578Z,75.13
2016-03-25T01:15:59.534Z,75.42
2016-03-25T01:16:59.537Z,75.6
2016-03-25T01:17:59.555Z,75.32
2016-03-25T01:18:59.542Z,75.7
2016-03-25T01:19:59.545Z,75.32
2016-03-25T01:20:59.531Z,75.23
2016-03-25T01:21:59.534Z,75.42
2016-03-25T01:22:59.536Z,75.23
2016-03-25T01:23:59.524Z,75.04
2016-03-25T01:24:59.542Z,74.95
2016-03-25T01:25:59.530Z,75.89
2016-03-25T01:26:59.532Z,75.79
2016-03-25T01:27:59.519Z,75.89
2016-03-25T01:28:59.521Z,75.89
2016-03-25T01:29:59.525Z,75.51
2016-03-25T01:30:59.527Z,75.42
2016-03-25T01:31:59.530Z,75.79
2016-03-25T01:32:59.516Z,75.7
2016-03-25T01:33:59.519Z,75.93
2016-03-25T01:34:59.522Z,75.7
2016-03-25T01:35:59.510Z,75.6
2016-03-25T01:36:59.512Z,75.6
2016-03-25T01:37:59.562Z,75.7
2016-03-25T01:38:59.501Z,75.55
2016-03-25T01:39:59.520Z,76.08
2016-03-25T01:40:59.507Z,75.98
2016-03-25T01:41:59.510Z,75.55
2016-03-25T01:42:59.497Z,75.89
2016-03-25T01:43:59.500Z,75.98
2016-03-25T01:44:59.518Z,75.51
2016-03-25T01:45:59.505Z,75.93
2016-03-25T01:46:59.492Z,75.45
2016-03-25T01:47:59.495Z,75.79
2016-03-25T01:48:59.544Z,75.7
2016-03-25T01:49:59.500Z,75.6
2016-03-25T01:50:59.503Z,75.6
2016-03-25T01:51:59.489Z,75.23
2016-03-25T01:52:59.492Z,75.64
2016-03-25T01:53:59.495Z,75.04
2016-03-25T01:54:59.482Z,74.88
2016-03-25T01:55:59.485Z,75.04
2016-03-25T01:57:00.144Z,75.55
2016-03-25T01:57:59.475Z,75.42
2016-03-25T01:58:59.477Z,75.42
2016-03-25T01:59:59.480Z,75.79
2016-03-25T02:00:59.467Z,75.23
2016-03-25T02:01:59.595Z,75.36
2016-03-25T02:02:59.472Z,75.32
2016-03-25T02:03:59.474Z,75.17
2016-03-25T02:04:59.462Z,75.23
2016-03-25T02:05:59.465Z,75.74
2016-03-25T02:06:59.468Z,74.98
2016-03-25T02:07:59.345Z,75.17
2016-03-25T02:08:59.504Z,75.26
2016-03-25T02:09:59.460Z,75.45
2016-03-25T02:10:59.462Z,75.64
2016-03-25T02:11:59.465Z,75.45
2016-03-25T02:12:59.453Z,75.55
2016-03-25T02:13:59.455Z,75.45
2016-03-25T02:14:59.459Z,75.17
2016-03-25T02:15:59.461Z,75.45
2016-03-25T02:16:59.447Z,75.55
2016-03-25T02:17:59.451Z,75.26
2016-03-25T02:18:59.437Z,75.55
2016-03-25T02:19:59.455Z,75.74
2016-03-25T02:20:59.443Z,75.55
2016-03-25T02:21:59.445Z,75.55
2016-03-25T02:22:59.448Z,75.07
2016-03-25T02:23:59.435Z,75.64
2016-03-25T02:24:59.438Z,75.55
2016-03-25T02:25:59.441Z,75.55
2016-03-25T02:26:59.427Z,75.45
2016-03-25T02:27:59.430Z,75.64
2016-03-25T02:28:59.432Z,74.98
2016-03-25T02:29:59.435Z,75.74
2016-03-25T02:30:59.439Z,75.26
2016-03-25T02:31:59.441Z,75.42
2016-03-25T02:32:59.427Z,75.55
2016-03-25T02:33:59.431Z,75.26
2016-03-25T02:34:59.433Z,75.6
2016-03-25T02:35:59.435Z,75.07
2016-03-25T02:36:59.407Z,75.51
2016-03-25T02:37:59.426Z,75.93
2016-03-25T02:38:59.429Z,75.7
2016-03-25T02:39:59.416Z,75.74
2016-03-25T02:40:59.418Z,75.51
2016-03-25T02:41:59.406Z,74.95
2016-03-25T02:42:59.409Z,75.04
2016-03-25T02:43:59.411Z,75.32
2016-03-25T02:44:59.413Z,75.42
2016-03-25T02:45:59.400Z,75.32
2016-03-25T02:46:59.395Z,75.26
2016-03-25T02:47:59.383Z,75.26
2016-03-25T02:48:59.355Z,75.36
2016-03-25T02:49:59.342Z,75.6
2016-03-25T02:50:59.330Z,75.51
2016-03-25T02:51:59.323Z,75.6
2016-03-25T02:52:59.305Z,75.42
2016-03-25T02:53:59.303Z,75.93
2016-03-25T02:54:59.300Z,75.7
2016-03-25T02:55:59.298Z,75.6
2016-03-25T02:56:59.280Z,75.51
2016-03-25T02:57:59.281Z,75.79
2016-03-25T02:58:59.282Z,75.79
2016-03-25T02:59:59.283Z,75.7
2016-03-25T03:00:59.267Z,75.51
2016-03-25T03:01:59.285Z,75.7
2016-03-25T03:02:59.256Z,75.51
2016-03-25T03:03:59.273Z,75.51
2016-03-25T03:04:59.275Z,75.79
2016-03-25T03:05:59.261Z,75.6
2016-03-25T03:06:59.247Z,76.17
2016-03-25T03:07:59.110Z,75.79
2016-03-25T03:08:59.252Z,75.6
2016-03-25T03:09:59.254Z,75.79
2016-03-25T03:10:59.273Z,76.4
2016-03-25T03:11:59.244Z,76.31
2016-03-25T03:12:59.247Z,75.93
2016-03-25T03:13:59.250Z,76.08
2016-03-25T03:14:59.080Z,76.27
2016-03-25T03:15:59.255Z,75.84
2016-03-25T03:16:59.242Z,76.12
2016-03-25T03:17:59.244Z,76.21
2016-03-25T03:18:59.231Z,75.84
2016-03-25T03:19:59.234Z,75.64
2016-03-25T03:20:59.237Z,75.74
2016-03-25T03:21:59.239Z,76.03
2016-03-25T03:22:59.102Z,75.36
2016-03-25T03:23:59.230Z,75.45
2016-03-25T03:24:59.216Z,76.21
2016-03-25T03:25:59.235Z,75.84
2016-03-25T03:26:59.222Z,75.74
2016-03-25T03:27:59.224Z,75.74
2016-03-25T03:28:59.212Z,75.74
2016-03-25T03:29:59.215Z,75.64
2016-03-25T03:30:59.217Z,75.55
2016-03-25T03:31:59.220Z,76.03
2016-03-25T03:32:59.208Z,75.74
2016-03-25T03:33:59.225Z,75.93
2016-03-25T03:34:59.213Z,75.74
2016-03-25T03:35:59.216Z,75.74
2016-03-25T03:36:59.218Z,75.84
2016-03-25T03:37:59.222Z,75.74
2016-03-25T03:38:59.208Z,75.64
2016-03-25T03:39:59.210Z,75.64
2016-03-25T03:40:59.199Z,75.64
2016-03-25T03:41:59.201Z,75.26
2016-03-25T03:42:59.203Z,75.84
2016-03-25T03:43:59.207Z,75.93
2016-03-25T03:44:59.193Z,75.45
2016-03-25T03:45:59.196Z,75.93
2016-03-25T03:46:59.199Z,75.84
2016-03-25T03:47:59.201Z,75.55
2016-03-25T03:48:59.188Z,75.64
2016-03-25T03:49:59.190Z,75.84
2016-03-25T03:50:59.193Z,75.55
2016-03-25T03:51:59.181Z,75.93
2016-03-25T03:52:59.214Z,75.74
2016-03-25T03:53:59.187Z,75.64
2016-03-25T03:54:59.189Z,75.74
2016-03-25T03:55:59.175Z,75.45
2016-03-25T03:56:59.195Z,75.74
2016-03-25T03:57:59.181Z,75.84
2016-03-25T03:58:59.168Z,75.55
2016-03-25T03:59:59.186Z,75.84
2016-03-25T04:00:59.173Z,76.03
2016-03-25T04:01:59.176Z,75.84
2016-03-25T04:02:59.178Z,75.64
2016-03-25T04:03:59.181Z,75.84
2016-03-25T04:04:59.169Z,75.64
2016-03-25T04:05:59.172Z,76.21
2016-03-25T04:06:59.174Z,75.74
2016-03-25T04:07:59.176Z,75.64
2016-03-25T04:08:59.164Z,76.03
2016-03-25T04:09:59.166Z,75.93
2016-03-25T04:10:59.154Z,76.4
2016-03-25T04:11:59.172Z,75.84
2016-03-25T04:12:59.174Z,76.03
2016-03-25T04:13:59.162Z,76.31
2016-03-25T04:14:59.165Z,75.84
2016-03-25T04:15:59.167Z,76.12
2016-03-25T04:16:59.154Z,76.12
2016-03-25T04:17:59.157Z,76.12
2016-03-25T04:18:59.144Z,76.12
2016-03-25T04:19:59.162Z,76.03
2016-03-25T04:20:59.149Z,76.03
2016-03-25T04:21:59.151Z,76.21
2016-03-25T04:22:59.155Z,76.12
2016-03-25T04:23:59.157Z,76.31
2016-03-25T04:24:59.144Z,76.31
2016-03-25T04:25:59.147Z,76.31
2016-03-25T04:26:58.993Z,76.68
2016-03-25T04:27:59.153Z,76.5
2016-03-25T04:28:59.139Z,76.97
2016-03-25T04:29:59.142Z,76.68
2016-03-25T04:30:59.145Z,76.12
2016-03-25T04:31:59.147Z,76.5
2016-03-25T04:32:59.150Z,76.87
2016-03-25T04:33:59.137Z,76.5
2016-03-25T04:34:59.139Z,76.4
2016-03-25T04:35:59.143Z,76.31
2016-03-25T04:36:59.130Z,76.31
2016-03-25T04:37:59.132Z,76.31
2016-03-25T04:38:59.136Z,76.21
2016-03-25T04:39:59.122Z,76.31
2016-03-25T04:40:59.124Z,76.5
2016-03-25T04:41:59.143Z,76.21
2016-03-25T04:42:59.130Z,77.16
2016-03-25T04:43:59.118Z,76.31
2016-03-25T04:44:59.136Z,76.68
2016-03-25T04:45:59.123Z,76.68
2016-03-25T04:46:59.125Z,76.68
2016-03-25T04:47:59.113Z,76.78
2016-03-25T04:48:59.115Z,76.78
2016-03-25T04:49:59.117Z,76.87
2016-03-25T04:50:59.105Z,76.87
2016-03-25T04:51:59.123Z,76.87
2016-03-25T04:52:59.110Z,76.78
2016-03-25T04:53:59.113Z,76.78
2016-03-25T04:54:59.115Z,76.68
2016-03-25T04:55:59.103Z,76.21
2016-03-25T04:56:59.214Z,76.21
2016-03-25T04:57:59.109Z,76.4
2016-03-25T04:58:59.111Z,76.4
2016-03-25T04:59:59.114Z,76.31
2016-03-25T05:00:59.101Z,76.78
2016-03-25T05:01:59.103Z,76.97
2016-03-25T05:02:59.106Z,76.4
2016-03-25T05:03:59.108Z,76.4
2016-03-25T05:04:59.095Z,76.59
2016-03-25T05:05:59.097Z,76.5
2016-03-25T05:06:59.100Z,76.68
2016-03-25T05:07:59.105Z,76.68
2016-03-25T05:08:59.093Z,76.78
2016-03-25T05:09:58.392Z,77.16
2016-03-25T05:10:59.098Z,76.5
2016-03-25T05:11:59.084Z,77.35
2016-03-25T05:12:59.087Z,77.35
2016-03-25T05:13:59.090Z,77.16
2016-03-25T05:14:59.092Z,77.45
2016-03-25T05:15:59.079Z,77.45
2016-03-25T05:16:59.081Z,76.97
2016-03-25T05:17:59.084Z,77.35
2016-03-25T05:18:59.072Z,77.06
2016-03-25T05:19:59.074Z,76.97
2016-03-25T05:20:59.092Z,77.54
2016-03-25T05:21:59.080Z,76.4
2016-03-25T05:22:59.066Z,77.45
2016-03-25T05:23:59.069Z,77.45
2016-03-25T05:24:59.072Z,77.06
2016-03-25T05:25:59.075Z,77.16
2016-03-25T05:26:59.062Z,76.78
2016-03-25T05:27:59.065Z,77.25
2016-03-25T05:28:59.052Z,77.35
2016-03-25T05:29:59.071Z,77.45
2016-03-25T05:30:59.057Z,77.06
2016-03-25T05:31:59.060Z,76.97
2016-03-25T05:32:59.063Z,76.97
2016-03-25T05:33:59.049Z,76.97
2016-03-25T05:34:59.068Z,76.97
2016-03-25T05:35:59.054Z,76.97
2016-03-25T05:36:59.058Z,77.16
2016-03-25T05:37:59.060Z,77.06
2016-03-25T05:38:59.048Z,76.68
2016-03-25T05:39:59.051Z,76.97
2016-03-25T05:40:59.053Z,76.78
2016-03-25T05:41:59.040Z,76.97
2016-03-25T05:42:59.043Z,76.97
2016-03-25T05:43:59.042Z,76.78
2016-03-25T05:44:59.045Z,77.25
2016-03-25T05:45:59.048Z,76.68
2016-03-25T05:46:59.035Z,77.06
2016-03-25T05:47:59.038Z,77.06
2016-03-25T05:48:59.040Z,76.97
2016-03-25T05:49:59.044Z,77.06
2016-03-25T05:50:59.046Z,77.06
2016-03-25T05:51:59.032Z,76.78
2016-03-25T05:52:59.036Z,77.16
2016-03-25T05:53:59.038Z,77.16
2016-03-25T05:54:59.024Z,77.06
2016-03-25T05:55:59.044Z,77.06
2016-03-25T05:56:59.046Z,77.06
2016-03-25T05:57:59.038Z,76.97
2016-03-25T05:58:59.026Z,76.97
2016-03-25T05:59:59.028Z,76.97
2016-03-25T06:00:59.030Z,77.06
2016-03-25T06:01:59.018Z,77.06
2016-03-25T06:02:59.020Z,76.87
2016-03-25T06:03:59.023Z,76.78
2016-03-25T06:04:59.026Z,76.68
2016-03-25T06:05:59.028Z,76.97
2016-03-25T06:06:59.031Z,76.87
2016-03-25T06:07:59.018Z,76.97
2016-03-25T06:08:59.020Z,77.06
2016-03-25T06:09:59.023Z,77.06
2016-03-25T06:10:59.011Z,77.06
2016-03-25T06:11:59.013Z,77.35
2016-03-25T06:12:59.017Z,77.54
2016-03-25T06:13:59.034Z,77.2
2016-03-25T06:14:59.005Z,77.48
2016-03-25T06:15:59.025Z,77.29
2016-03-25T06:16:59.011Z,77.06
2016-03-25T06:17:59.013Z,77.11
2016-03-25T06:18:59.000Z,77.48
2016-03-25T06:19:59.003Z,77.01
2016-03-25T06:20:59.006Z,77.39
2016-03-25T06:21:59.008Z,77.29
2016-03-25T06:22:59.027Z,77.39
2016-03-25T06:23:59.014Z,77.2
2016-03-25T06:24:59.001Z,77.11
2016-03-25T06:25:59.004Z,77.48
2016-03-25T06:26:59.007Z,77.48
2016-03-25T06:27:59.009Z,77.2
2016-03-25T06:28:58.996Z,77.2
2016-03-25T06:29:59.015Z,77.01
2016-03-25T06:30:59.001Z,77.01
2016-03-25T06:31:59.004Z,77.48
2016-03-25T06:32:59.007Z,77.11
2016-03-25T06:33:58.995Z,77.67
2016-03-25T06:34:58.998Z,77.48
2016-03-25T06:35:59.015Z,77.29
2016-03-25T06:36:59.003Z,77.39
2016-03-25T06:37:59.006Z,77.48
2016-03-25T06:38:58.992Z,77.48
2016-03-25T06:39:58.994Z,77.48
2016-03-25T06:40:58.998Z,77.58
2016-03-25T06:41:59.000Z,77.86
2016-03-25T06:42:58.986Z,78.53
2016-03-25T06:43:58.990Z,77.96
2016-03-25T06:44:58.992Z,78.81
2016-03-25T06:45:58.995Z,78.53
2016-03-25T06:46:58.998Z,78.43
2016-03-25T06:47:59.000Z,78.81
2016-03-25T06:48:58.988Z,78.91
2016-03-25T06:49:58.991Z,79.1
2016-03-25T06:50:58.993Z,79
2016-03-25T06:51:58.996Z,79
2016-03-25T06:52:58.999Z,79.76
2016-03-25T06:53:58.985Z,78.81
2016-03-25T06:54:58.989Z,78.53
2016-03-25T06:55:58.975Z,78.34
2016-03-25T06:56:58.993Z,78.81
2016-03-25T06:57:58.980Z,79
2016-03-25T06:58:58.983Z,78.81
2016-03-25T06:59:58.985Z,78.72
2016-03-25T07:00:58.988Z,79.57
2016-03-25T07:01:58.991Z,79.19
2016-03-25T07:02:58.979Z,79.66
2016-03-25T07:03:58.981Z,79
2016-03-25T07:04:58.984Z,78.62
2016-03-25T07:05:58.986Z,79.1
2016-03-25T07:06:58.989Z,78.81
2016-03-25T07:07:58.992Z,78.43
2016-03-25T07:08:58.979Z,79.04
2016-03-25T07:09:58.997Z,79
2016-03-25T07:10:58.985Z,79
2016-03-25T07:11:58.987Z,78.95
2016-03-25T07:12:58.974Z,78.81
2016-03-25T07:13:58.977Z,78.62
2016-03-25T07:14:58.980Z,78.43
2016-03-25T07:15:58.982Z,78.95
2016-03-25T07:16:58.985Z,79.04
2016-03-25T07:17:58.972Z,78.53
2016-03-25T07:18:58.990Z,78.85
2016-03-25T07:19:58.978Z,78.75
2016-03-25T07:20:58.996Z,78.66
2016-03-25T07:21:58.982Z,78.95
2016-03-25T07:22:58.970Z,78.38
2016-03-25T07:23:58.972Z,78.66
2016-03-25T07:24:58.974Z,79.04
2016-03-25T07:25:59.180Z,79.52
2016-03-25T07:26:58.965Z,78.85
2016-03-25T07:27:58.983Z,79.04
2016-03-25T07:28:58.986Z,78.75
2016-03-25T07:29:58.989Z,78.85
2016-03-25T07:30:58.976Z,79.04
2016-03-25T07:31:58.979Z,79.71
2016-03-25T07:32:58.965Z,79.23
2016-03-25T07:33:58.999Z,79.04
2016-03-25T07:34:58.970Z,79.14
2016-03-25T07:35:58.974Z,79.14
2016-03-25T07:36:58.976Z,79.04
2016-03-25T07:37:58.979Z,79.04
2016-03-25T07:38:58.982Z,79.14
2016-03-25T07:39:58.984Z,78.85
2016-03-25T07:40:58.970Z,79.04
2016-03-25T07:41:58.974Z,79.04
2016-03-25T07:42:59.008Z,79.14
2016-03-25T07:43:58.995Z,79.04
2016-03-25T07:44:59.186Z,78.75
2016-03-25T07:45:59.220Z,78.99
2016-03-25T07:46:58.987Z,78.99
2016-03-25T07:47:59.334Z,79.17
2016-03-25T07:48:59.009Z,78.89
2016-03-25T07:49:59.167Z,78.99
2016-03-25T07:50:58.998Z,78.51
2016-03-25T07:51:58.860Z,78.13
2016-03-25T07:52:59.003Z,78.13
2016-03-25T07:53:59.288Z,77.94
2016-03-25T07:54:58.994Z,77.47
2016-03-25T07:55:59.027Z,77.41
2016-03-25T07:56:59.013Z,77.51
2016-03-25T07:57:59.016Z,77.22
2016-03-25T07:58:59.020Z,77.51
2016-03-25T07:59:59.007Z,77.51
2016-03-25T08:00:59.024Z,76.56
2016-03-25T08:01:59.028Z,76.84
2016-03-25T08:02:59.015Z,76.93
2016-03-25T08:03:59.048Z,76.46
2016-03-25T08:04:59.020Z,76.56
2016-03-25T08:05:59.101Z,76.4
2016-03-25T08:06:59.010Z,76.59
2016-03-25T08:07:59.012Z,76.4
2016-03-25T08:08:59.031Z,76.59
2016-03-25T08:09:59.190Z,76.03
2016-03-25T08:10:59.020Z,75.93
2016-03-25T08:11:59.023Z,75.45
2016-03-25T08:12:59.011Z,75.36
2016-03-25T08:13:59.013Z,75.74
2016-03-25T08:14:59.031Z,75.84
2016-03-25T08:15:59.019Z,75.17
2016-03-25T08:16:59.037Z,74.88
2016-03-25T08:17:59.024Z,75.21
2016-03-25T08:19:00.011Z,75.17
2016-03-25T08:19:59.045Z,74.63
2016-03-25T08:20:59.047Z,74.73
2016-03-25T08:21:59.035Z,74.35
2016-03-25T08:22:59.084Z,74.35
2016-03-25T08:23:59.180Z,73.88
2016-03-25T08:24:59.058Z,73.78
2016-03-25T08:25:59.061Z,73.59
2016-03-25T08:26:59.157Z,73.78
2016-03-25T08:27:59.129Z,73.88
2016-03-25T08:28:59.054Z,73.4
2016-03-25T08:29:59.071Z,72.86
2016-03-25T08:31:01.841Z,72.86
2016-03-25T08:31:59.077Z,73.15
2016-03-25T08:32:59.096Z,73.53
2016-03-25T08:33:59.208Z,73.25
2016-03-25T08:34:59.085Z,73.25
2016-03-25T08:35:59.104Z,72.39
2016-03-25T08:36:59.090Z,72.39
2016-03-25T08:37:59.187Z,72.86
2016-03-25T08:38:59.189Z,72.96
2016-03-25T08:39:59.114Z,73.44
2016-03-25T08:40:59.101Z,73.25
2016-03-25T08:41:59.120Z,73.25
2016-03-25T08:42:59.154Z,72.67
2016-03-25T08:43:59.109Z,72.42
2016-03-25T08:44:59.128Z,72.81
2016-03-25T08:45:58.475Z,72.05
2016-03-25T08:46:59.305Z,72.05
2016-03-25T08:47:59.245Z,72.05
2016-03-25T08:48:59.139Z,71.47
2016-03-25T08:49:59.189Z,71.57
2016-03-25T08:50:59.145Z,71.38
2016-03-25T08:51:59.147Z,70.52
2016-03-25T08:52:59.150Z,70.81
2016-03-25T08:53:59.011Z,71.28
2016-03-25T08:54:59.264Z,71.28
2016-03-25T08:55:59.283Z,71.09
2016-03-25T08:56:59.238Z,70.81
2016-03-25T08:57:59.194Z,70.56
2016-03-25T08:58:59.243Z,70.47
2016-03-25T08:59:59.183Z,70.47
2016-03-25T09:00:59.186Z,70.75
2016-03-25T09:01:59.205Z,70.37
2016-03-25T09:02:59.286Z,70.37
2016-03-25T09:03:59.351Z,70.08
2016-03-25T09:04:59.509Z,69.79
2016-03-25T09:05:59.262Z,69.95
2016-03-25T09:06:58.671Z,69.99
